sensor_id;sensor_type;location;lat;lon;timestamp;temperature;humidity
12817;DHT22;6473;51.552;6.716;2023-02-28T01:38:12;-0.60;99.90
12817;DHT22;6473;51.552;6.716;2023-02-28T03:15:08;-1.60;99.90
12817;DHT22;6473;51.552;6.716;2023-02-28T03:17:52;-1.70;99.90
12817;DHT22;6473;51.552;6.716;2023-02-28T07:31:11;-1.00;99.90
12817;DHT22;6473;51.552;6.716;2023-02-28T08:37:50;5.50;1.00
12817;DHT22;6473;51.552;6.716;2023-02-28T08:47:39;5.90;1.00
12817;DHT22;6473;51.552;6.716;2023-02-28T08:50:07;6.00;1.00
12817;DHT22;6473;51.552;6.716;2023-02-28T08:52:34;6.40;1.00
12817;DHT22;6473;51.552;6.716;2023-02-28T08:55:02;6.60;1.00
12817;DHT22;6473;51.552;6.716;2023-02-28T08:59:56;7.20;1.00
12817;DHT22;6473;51.552;6.716;2023-02-28T09:02:23;7.40;1.00
12817;DHT22;6473;51.552;6.716;2023-02-28T09:07:17;7.90;1.00
12817;DHT22;6473;51.552;6.716;2023-02-28T09:09:44;7.80;1.00
12817;DHT22;6473;51.552;6.716;2023-02-28T09:12:21;8.10;1.00
12817;DHT22;6473;51.552;6.716;2023-02-28T09:14:48;8.80;1.00
12817;DHT22;6473;51.552;6.716;2023-02-28T09:19:42;8.30;1.00
12817;DHT22;6473;51.552;6.716;2023-02-28T09:22:10;7.30;1.00
12817;DHT22;6473;51.552;6.716;2023-02-28T09:24:37;7.90;1.00
12817;DHT22;6473;51.552;6.716;2023-02-28T09:27:05;8.60;1.00
12817;DHT22;6473;51.552;6.716;2023-02-28T09:29:34;8.60;1.00
12817;DHT22;6473;51.552;6.716;2023-02-28T09:32:01;8.40;1.00
12817;DHT22;6473;51.552;6.716;2023-02-28T09:34:31;8.50;1.00
12817;DHT22;6473;51.552;6.716;2023-02-28T09:36:58;9.10;1.00
12817;DHT22;6473;51.552;6.716;2023-02-28T09:39:25;8.80;1.00
12817;DHT22;6473;51.552;6.716;2023-02-28T09:41:54;8.70;1.00
12817;DHT22;6473;51.552;6.716;2023-02-28T09:44:27;9.10;1.00
12817;DHT22;6473;51.552;6.716;2023-02-28T09:46:59;9.50;1.00
12817;DHT22;6473;51.552;6.716;2023-02-28T09:49:33;9.40;1.00
12817;DHT22;6473;51.552;6.716;2023-02-28T09:52:03;8.60;1.00
12817;DHT22;6473;51.552;6.716;2023-02-28T09:54:32;8.60;1.00
12817;DHT22;6473;51.552;6.716;2023-02-28T09:57:04;8.50;1.00
12817;DHT22;6473;51.552;6.716;2023-02-28T09:59:39;8.40;1.00
12817;DHT22;6473;51.552;6.716;2023-02-28T10:02:35;8.50;1.00
12817;DHT22;6473;51.552;6.716;2023-02-28T10:05:07;8.60;1.00
12817;DHT22;6473;51.552;6.716;2023-02-28T10:07:46;8.40;1.00
12817;DHT22;6473;51.552;6.716;2023-02-28T10:10:21;7.50;1.00
12817;DHT22;6473;51.552;6.716;2023-02-28T10:12:54;9.40;1.00
12817;DHT22;6473;51.552;6.716;2023-02-28T10:15:24;7.50;1.00
12817;DHT22;6473;51.552;6.716;2023-02-28T10:17:56;7.60;1.00
12817;DHT22;6473;51.552;6.716;2023-02-28T10:20:24;7.90;1.00
12817;DHT22;6473;51.552;6.716;2023-02-28T10:23:00;7.90;1.00
12817;DHT22;6473;51.552;6.716;2023-02-28T10:25:34;8.00;1.00
12817;DHT22;6473;51.552;6.716;2023-02-28T10:28:09;7.20;1.00
12817;DHT22;6473;51.552;6.716;2023-02-28T10:30:40;6.90;1.00
12817;DHT22;6473;51.552;6.716;2023-02-28T10:33:18;6.80;1.00
12817;DHT22;6473;51.552;6.716;2023-02-28T10:35:46;6.70;1.00
12817;DHT22;6473;51.552;6.716;2023-02-28T10:38:16;7.10;1.00
12817;DHT22;6473;51.552;6.716;2023-02-28T10:43:22;6.10;1.00
12817;DHT22;6473;51.552;6.716;2023-02-28T10:45:57;7.20;1.00
12817;DHT22;6473;51.552;6.716;2023-02-28T10:48:33;7.10;1.00
12817;DHT22;6473;51.552;6.716;2023-02-28T10:51:01;7.30;1.00
12817;DHT22;6473;51.552;6.716;2023-02-28T10:53:35;6.80;1.00
12817;DHT22;6473;51.552;6.716;2023-02-28T10:56:06;6.80;1.00
12817;DHT22;6473;51.552;6.716;2023-02-28T10:58:46;6.70;1.00
12817;DHT22;6473;51.552;6.716;2023-02-28T11:01:16;7.60;1.00
12817;DHT22;6473;51.552;6.716;2023-02-28T11:03:45;8.10;1.00
12817;DHT22;6473;51.552;6.716;2023-02-28T11:06:16;8.00;1.00
12817;DHT22;6473;51.552;6.716;2023-02-28T11:08:45;7.90;1.00
12817;DHT22;6473;51.552;6.716;2023-02-28T11:11:13;7.30;1.00
12817;DHT22;6473;51.552;6.716;2023-02-28T11:13:44;6.60;1.00
12817;DHT22;6473;51.552;6.716;2023-02-28T11:16:13;6.70;1.00
12817;DHT22;6473;51.552;6.716;2023-02-28T11:18:46;7.20;1.00
12817;DHT22;6473;51.552;6.716;2023-02-28T11:21:21;7.10;1.00
12817;DHT22;6473;51.552;6.716;2023-02-28T11:26:37;7.70;1.00
12817;DHT22;6473;51.552;6.716;2023-02-28T11:29:11;7.40;1.00
12817;DHT22;6473;51.552;6.716;2023-02-28T11:34:25;7.10;1.00
12817;DHT22;6473;51.552;6.716;2023-02-28T11:36:54;6.80;1.00
12817;DHT22;6473;51.552;6.716;2023-02-28T11:39:22;7.60;1.00
12817;DHT22;6473;51.552;6.716;2023-02-28T11:42:10;7.80;1.00
12817;DHT22;6473;51.552;6.716;2023-02-28T11:44:56;8.00;1.00
12817;DHT22;6473;51.552;6.716;2023-02-28T11:47:32;8.10;1.00
12817;DHT22;6473;51.552;6.716;2023-02-28T11:50:21;8.20;1.00
12817;DHT22;6473;51.552;6.716;2023-02-28T11:52:53;8.60;1.00
12817;DHT22;6473;51.552;6.716;2023-02-28T11:55:25;9.30;1.00
12817;DHT22;6473;51.552;6.716;2023-02-28T12:01:13;10.10;1.00
12817;DHT22;6473;51.552;6.716;2023-02-28T12:03:53;10.20;1.00
12817;DHT22;6473;51.552;6.716;2023-02-28T12:06:30;10.10;1.00
12817;DHT22;6473;51.552;6.716;2023-02-28T12:09:10;9.80;1.00
12817;DHT22;6473;51.552;6.716;2023-02-28T12:11:48;9.90;1.00
12817;DHT22;6473;51.552;6.716;2023-02-28T12:17:18;10.00;1.00
12817;DHT22;6473;51.552;6.716;2023-02-28T12:19:54;10.80;1.00
12817;DHT22;6473;51.552;6.716;2023-02-28T12:22:30;11.30;1.00
12817;DHT22;6473;51.552;6.716;2023-02-28T12:27:59;10.50;1.00
12817;DHT22;6473;51.552;6.716;2023-02-28T12:30:28;9.30;1.00
12817;DHT22;6473;51.552;6.716;2023-02-28T12:33:02;9.40;1.00
12817;DHT22;6473;51.552;6.716;2023-02-28T12:35:33;9.40;1.00
12817;DHT22;6473;51.552;6.716;2023-02-28T12:38:07;9.80;1.00
12817;DHT22;6473;51.552;6.716;2023-02-28T12:40:43;10.30;1.00
12817;DHT22;6473;51.552;6.716;2023-02-28T12:43:13;10.70;1.00
12817;DHT22;6473;51.552;6.716;2023-02-28T12:45:44;10.90;1.00
12817;DHT22;6473;51.552;6.716;2023-02-28T12:48:16;10.40;1.00
12817;DHT22;6473;51.552;6.716;2023-02-28T12:50:45;11.50;1.00
12817;DHT22;6473;51.552;6.716;2023-02-28T12:53:23;12.00;1.00
12817;DHT22;6473;51.552;6.716;2023-02-28T12:55:59;12.10;1.00
12817;DHT22;6473;51.552;6.716;2023-02-28T12:58:35;13.50;1.00
12817;DHT22;6473;51.552;6.716;2023-02-28T13:01:33;13.10;1.00
12817;DHT22;6473;51.552;6.716;2023-02-28T13:07:25;11.90;1.00
12817;DHT22;6473;51.552;6.716;2023-02-28T13:10:02;12.30;1.00
12817;DHT22;6473;51.552;6.716;2023-02-28T13:15:05;12.80;1.00
12817;DHT22;6473;51.552;6.716;2023-02-28T13:17:38;13.70;1.00
12817;DHT22;6473;51.552;6.716;2023-02-28T13:20:15;14.20;1.00
12817;DHT22;6473;51.552;6.716;2023-02-28T13:22:43;14.50;1.00
12817;DHT22;6473;51.552;6.716;2023-02-28T13:34:40;15.30;1.00
12817;DHT22;6473;51.552;6.716;2023-02-28T13:37:34;16.00;1.00
12817;DHT22;6473;51.552;6.716;2023-02-28T13:40:27;16.10;1.00
12817;DHT22;6473;51.552;6.716;2023-02-28T13:45:28;14.90;1.00
12817;DHT22;6473;51.552;6.716;2023-02-28T13:48:15;14.50;1.00
12817;DHT22;6473;51.552;6.716;2023-02-28T13:53:38;14.40;1.00
12817;DHT22;6473;51.552;6.716;2023-02-28T13:56:31;13.10;1.00
12817;DHT22;6473;51.552;6.716;2023-02-28T13:59:06;12.70;1.00
12817;DHT22;6473;51.552;6.716;2023-02-28T14:01:52;11.50;1.00
12817;DHT22;6473;51.552;6.716;2023-02-28T14:04:46;14.40;1.00
12817;DHT22;6473;51.552;6.716;2023-02-28T14:07:20;14.90;1.00
12817;DHT22;6473;51.552;6.716;2023-02-28T14:09:55;14.10;1.00
12817;DHT22;6473;51.552;6.716;2023-02-28T14:12:52;13.80;1.00
12817;DHT22;6473;51.552;6.716;2023-02-28T14:15:37;13.30;1.00
12817;DHT22;6473;51.552;6.716;2023-02-28T14:18:16;13.00;1.00
12817;DHT22;6473;51.552;6.716;2023-02-28T14:20:45;13.60;1.00
12817;DHT22;6473;51.552;6.716;2023-02-28T14:23:23;14.50;1.00
12817;DHT22;6473;51.552;6.716;2023-02-28T14:26:01;14.40;1.00
12817;DHT22;6473;51.552;6.716;2023-02-28T14:28:44;16.10;1.00
12817;DHT22;6473;51.552;6.716;2023-02-28T14:31:17;16.00;1.00
12817;DHT22;6473;51.552;6.716;2023-02-28T14:33:59;15.30;1.00
12817;DHT22;6473;51.552;6.716;2023-02-28T14:36:32;17.10;1.00
12817;DHT22;6473;51.552;6.716;2023-02-28T14:39:04;16.30;1.00
12817;DHT22;6473;51.552;6.716;2023-02-28T14:41:33;14.40;1.00
12817;DHT22;6473;51.552;6.716;2023-02-28T14:44:12;15.20;1.00
12817;DHT22;6473;51.552;6.716;2023-02-28T14:46:41;14.50;1.00
12817;DHT22;6473;51.552;6.716;2023-02-28T14:49:15;13.90;1.00
12817;DHT22;6473;51.552;6.716;2023-02-28T14:54:15;14.00;1.00
12817;DHT22;6473;51.552;6.716;2023-02-28T14:56:42;14.40;1.00
12817;DHT22;6473;51.552;6.716;2023-02-28T14:59:28;14.70;1.00
12817;DHT22;6473;51.552;6.716;2023-02-28T15:02:17;16.40;1.00
12817;DHT22;6473;51.552;6.716;2023-02-28T15:04:54;15.70;1.00
12817;DHT22;6473;51.552;6.716;2023-02-28T15:10:17;16.20;1.00
12817;DHT22;6473;51.552;6.716;2023-02-28T15:12:52;15.70;1.00
12817;DHT22;6473;51.552;6.716;2023-02-28T15:15:20;14.10;1.00
12817;DHT22;6473;51.552;6.716;2023-02-28T15:17:51;13.70;1.00
12817;DHT22;6473;51.552;6.716;2023-02-28T15:20:22;12.80;1.00
12817;DHT22;6473;51.552;6.716;2023-02-28T15:25:21;11.70;1.00
12817;DHT22;6473;51.552;6.716;2023-02-28T15:30:20;10.50;1.00
12817;DHT22;6473;51.552;6.716;2023-02-28T15:33:06;11.10;1.00
12817;DHT22;6473;51.552;6.716;2023-02-28T15:35:38;10.70;1.00
12817;DHT22;6473;51.552;6.716;2023-02-28T15:38:15;11.20;1.00
12817;DHT22;6473;51.552;6.716;2023-02-28T15:40:43;10.30;1.00
12817;DHT22;6473;51.552;6.716;2023-02-28T15:45:44;9.90;1.00
12817;DHT22;6473;51.552;6.716;2023-02-28T15:48:18;9.80;1.00
12817;DHT22;6473;51.552;6.716;2023-02-28T15:50:50;9.50;1.00
12817;DHT22;6473;51.552;6.716;2023-02-28T15:53:20;9.00;1.00
12817;DHT22;6473;51.552;6.716;2023-02-28T15:55:58;8.90;1.00
12817;DHT22;6473;51.552;6.716;2023-02-28T15:58:26;8.50;1.00
12817;DHT22;6473;51.552;6.716;2023-02-28T16:01:04;8.50;1.00
12817;DHT22;6473;51.552;6.716;2023-02-28T16:03:39;8.60;1.00
12817;DHT22;6473;51.552;6.716;2023-02-28T16:06:34;9.20;1.00
12817;DHT22;6473;51.552;6.716;2023-02-28T16:09:05;9.50;1.00
12817;DHT22;6473;51.552;6.716;2023-02-28T16:11:34;9.40;1.00
12817;DHT22;6473;51.552;6.716;2023-02-28T16:16:31;9.20;1.00
12817;DHT22;6473;51.552;6.716;2023-02-28T16:18:59;9.40;1.00
12817;DHT22;6473;51.552;6.716;2023-02-28T16:21:28;9.10;1.00
12817;DHT22;6473;51.552;6.716;2023-02-28T16:26:23;7.70;1.00
12817;DHT22;6473;51.552;6.716;2023-02-28T16:36:16;6.50;1.00
12817;DHT22;6473;51.552;6.716;2023-02-28T16:41:14;5.80;1.00
12817;DHT22;6473;51.552;6.716;2023-02-28T16:43:45;5.50;1.00
12817;DHT22;6473;51.552;6.716;2023-02-28T16:51:11;5.20;1.00
12817;DHT22;6473;51.552;6.716;2023-02-28T16:58:39;5.00;1.00
12817;DHT22;6473;51.552;6.716;2023-02-28T17:03:33;4.90;1.00
12817;DHT22;6473;51.552;6.716;2023-02-28T17:15:53;4.70;1.00
12817;DHT22;6473;51.552;6.716;2023-02-28T17:18:21;4.60;1.00
12817;DHT22;6473;51.552;6.716;2023-02-28T17:25:43;4.40;2.40
12817;DHT22;6473;51.552;6.716;2023-02-28T17:28:19;4.20;2.00
12817;DHT22;6473;51.552;6.716;2023-02-28T17:30:47;4.20;3.70
12817;DHT22;6473;51.552;6.716;2023-02-28T17:33:15;4.20;4.50
12817;DHT22;6473;51.552;6.716;2023-02-28T17:38:15;4.10;8.30
12817;DHT22;6473;51.552;6.716;2023-02-28T17:48:08;3.90;14.70
12817;DHT22;6473;51.552;6.716;2023-02-28T18:00:28;3.60;25.10
12817;DHT22;6473;51.552;6.716;2023-02-28T18:05:26;3.60;27.90
12817;DHT22;6473;51.552;6.716;2023-02-28T18:12:48;3.40;33.70
12817;DHT22;6473;51.552;6.716;2023-02-28T18:15:16;3.30;41.30
12817;DHT22;6473;51.552;6.716;2023-02-28T18:22:41;3.10;55.90
12817;DHT22;6473;51.552;6.716;2023-02-28T18:25:10;2.90;62.30
12817;DHT22;6473;51.552;6.716;2023-02-28T18:27:39;2.80;64.60
12817;DHT22;6473;51.552;6.716;2023-02-28T18:42:56;2.80;68.20
12817;DHT22;6473;51.552;6.716;2023-02-28T18:55:14;2.50;71.10
12817;DHT22;6473;51.552;6.716;2023-02-28T19:00:12;2.40;74.10
12817;DHT22;6473;51.552;6.716;2023-02-28T19:02:39;2.30;76.30
12817;DHT22;6473;51.552;6.716;2023-02-28T19:05:07;2.30;79.90
12817;DHT22;6473;51.552;6.716;2023-02-28T19:10:04;2.10;83.70
12817;DHT22;6473;51.552;6.716;2023-02-28T19:17:30;2.00;90.10
12817;DHT22;6473;51.552;6.716;2023-02-28T19:22:25;1.90;90.90
12817;DHT22;6473;51.552;6.716;2023-02-28T19:32:16;1.80;92.30
12817;DHT22;6473;51.552;6.716;2023-02-28T19:37:11;1.70;92.00
12817;DHT22;6473;51.552;6.716;2023-02-28T19:42:06;1.50;94.50
12817;DHT22;6473;51.552;6.716;2023-02-28T19:47:02;1.40;94.60
12817;DHT22;6473;51.552;6.716;2023-02-28T19:49:29;1.40;95.80
12817;DHT22;6473;51.552;6.716;2023-02-28T19:54:25;1.40;95.70
12817;DHT22;6473;51.552;6.716;2023-02-28T19:59:22;1.20;96.40
12817;DHT22;6473;51.552;6.716;2023-02-28T20:04:20;1.10;97.90
12817;DHT22;6473;51.552;6.716;2023-02-28T20:06:47;1.10;98.70
12817;DHT22;6473;51.552;6.716;2023-02-28T20:14:09;1.10;98.00
12817;DHT22;6473;51.552;6.716;2023-02-28T20:19:05;0.90;98.40
12817;DHT22;6473;51.552;6.716;2023-02-28T20:21:34;0.90;98.50
12817;DHT22;6473;51.552;6.716;2023-02-28T20:26:30;0.80;99.70
12817;DHT22;6473;51.552;6.716;2023-02-28T20:28:56;0.80;99.90
12817;DHT22;6473;51.552;6.716;2023-02-28T20:33:53;0.80;99.90
12817;DHT22;6473;51.552;6.716;2023-02-28T20:36:20;0.70;99.90
12817;DHT22;6473;51.552;6.716;2023-02-28T20:38:50;0.70;99.90
12817;DHT22;6473;51.552;6.716;2023-02-28T20:41:18;0.70;99.90
12817;DHT22;6473;51.552;6.716;2023-02-28T20:46:12;0.70;99.90
12817;DHT22;6473;51.552;6.716;2023-02-28T20:53:34;0.60;99.90
12817;DHT22;6473;51.552;6.716;2023-02-28T20:56:05;0.60;99.90
12817;DHT22;6473;51.552;6.716;2023-02-28T20:58:35;0.50;99.90
12817;DHT22;6473;51.552;6.716;2023-02-28T21:01:04;0.40;99.90
12817;DHT22;6473;51.552;6.716;2023-02-28T21:03:37;0.40;99.90
12817;DHT22;6473;51.552;6.716;2023-02-28T21:06:04;0.40;99.90
12817;DHT22;6473;51.552;6.716;2023-02-28T21:13:30;0.40;99.90
12817;DHT22;6473;51.552;6.716;2023-02-28T21:16:02;0.40;99.90
12817;DHT22;6473;51.552;6.716;2023-02-28T21:21:00;0.20;99.90
12817;DHT22;6473;51.552;6.716;2023-02-28T21:30:50;0.60;99.90
12817;DHT22;6473;51.552;6.716;2023-02-28T21:35:44;0.30;99.90
12817;DHT22;6473;51.552;6.716;2023-02-28T21:48:02;-0.20;99.90
12817;DHT22;6473;51.552;6.716;2023-02-28T22:00:19;-0.20;99.90
12817;DHT22;6473;51.552;6.716;2023-02-28T22:05:14;-0.30;99.90
12817;DHT22;6473;51.552;6.716;2023-02-28T22:10:10;-0.30;99.90
12817;DHT22;6473;51.552;6.716;2023-02-28T22:15:05;-0.30;99.90
12817;DHT22;6473;51.552;6.716;2023-02-28T22:22:28;-0.20;99.90
12817;DHT22;6473;51.552;6.716;2023-02-28T22:37:11;-0.50;99.90
12817;DHT22;6473;51.552;6.716;2023-02-28T22:39:42;-0.60;99.90
12817;DHT22;6473;51.552;6.716;2023-02-28T22:56:53;-0.70;99.90
12817;DHT22;6473;51.552;6.716;2023-02-28T23:09:13;-0.90;99.90
12817;DHT22;6473;51.552;6.716;2023-02-28T23:11:44;-0.90;99.90
12817;DHT22;6473;51.552;6.716;2023-02-28T23:14:14;-1.10;99.90
12817;DHT22;6473;51.552;6.716;2023-02-28T23:16:43;-0.90;99.90
12817;DHT22;6473;51.552;6.716;2023-02-28T23:19:12;-0.80;99.90
12817;DHT22;6473;51.552;6.716;2023-02-28T23:24:08;-0.90;99.90
12817;DHT22;6473;51.552;6.716;2023-02-28T23:31:32;-1.00;99.90
12817;DHT22;6473;51.552;6.716;2023-02-28T23:38:54;-1.10;99.90
12817;DHT22;6473;51.552;6.716;2023-02-28T23:41:22;-1.10;99.90
12817;DHT22;6473;51.552;6.716;2023-02-28T23:43:50;-1.10;99.90
12817;DHT22;6473;51.552;6.716;2023-02-28T23:46:18;-1.10;99.90
12817;DHT22;6473;51.552;6.716;2023-02-28T23:48:46;-1.20;99.90
12817;DHT22;6473;51.552;6.716;2023-02-28T23:51:15;-1.50;99.90
12817;DHT22;6473;51.552;6.716;2023-02-28T23:53:44;-1.20;99.90
12817;DHT22;6473;51.552;6.716;2023-02-28T23:56:13;-1.20;99.90
